Time;durP1;ratioP1;P1;durP2;ratioP2;P2;SDS_P1;SDS_P2;PMS_P1;PMS_P2;Temp;Humidity;BMP_temperature;BMP_pressure;BME280_temperature;BME280_humidity;BME280_pressure;Samples;Min_cycle;Max_cycle;Signal;HPM_P1;HPM_P2
2022/07/14 00:03:17;;;;;;;7.55;2.90;;;;;;;21.97;74.77;99900.34;10337219;28;20061;-74
2022/07/14 00:08:18;;;;;;;6.85;3.47;;;;;;;21.72;74.91;99864.91;10337157;28;20445;-73
2022/07/14 00:13:19;;;;;;;5.60;3.47;;;;;;;22.12;74.83;99926.75;10337799;28;20105;-74
2022/07/14 00:18:20;;;;;;;6.53;3.22;;;;;;;21.78;74.92;99883.66;10337960;28;20038;-74
2022/07/14 00:23:22;;;;;;;15.65;3.67;;;;;;;21.46;75.47;99821.38;10336479;28;20108;-74
2022/07/14 00:28:23;;;;;;;13.60;3.13;;;;;;;22.12;75.34;99926.75;10337365;28;20395;-75
2022/07/14 00:33:23;;;;;;;16.95;3.75;;;;;;;21.18;75.98;99787.25;10336195;28;20062;-74
2022/07/14 00:38:24;;;;;;;9.45;3.30;;;;;;;22.02;76.26;99932.88;10336453;28;20129;-73
2022/07/14 00:43:25;;;;;;;6.47;3.30;;;;;;;21.21;76.34;99794.84;10368164;28;20556;-74
2022/07/14 00:48:27;;;;;;;50.40;5.10;;;;;;;21.05;77.11;99782.22;10367897;28;20461;-74
2022/07/14 00:53:28;;;;;;;8.02;3.28;;;;;;;21.95;77.15;99923.31;10336006;28;20065;-74
2022/07/14 00:58:29;;;;;;;40.38;5.50;;;;;;;21.73;77.53;99910.63;10335409;28;20042;-74
2022/07/14 01:03:30;;;;;;;8.65;3.78;;;;;;;21.86;78.17;99929.16;10333077;28;20034;-75
2022/07/14 01:08:31;;;;;;;53.50;6.68;;;;;;;21.67;78.57;99908.13;10294584;28;20129;-75
2022/07/14 01:13:31;;;;;;;24.58;3.97;;;;;;;21.73;78.41;99928.72;10328942;28;20054;-74
2022/07/14 01:18:32;;;;;;;15.80;4.40;;;;;;;21.92;78.29;99958.97;10335091;28;20093;-75
2022/07/14 01:23:33;;;;;;;56.47;5.60;;;;;;;21.86;78.70;99972.41;10320110;28;20039;-74
2022/07/14 01:28:34;;;;;;;26.92;4.78;;;;;;;21.78;79.24;99969.34;10293636;28;20046;-75
2022/07/14 01:33:35;;;;;;;31.17;5.68;;;;;;;21.90;79.42;99978.16;10293869;28;20065;-74
2022/07/14 01:38:35;;;;;;;27.20;5.70;;;;;;;22.00;79.21;99989.09;10294054;28;20133;-74
2022/07/14 01:43:36;;;;;;;82.40;9.20;;;;;;;21.86;79.07;99939.97;10293664;28;20047;-73
2022/07/14 01:48:37;;;;;;;7.90;4.60;;;;;;;22.18;79.05;99968.22;10293684;28;20039;-75
2022/07/14 01:53:38;;;;;;;44.13;5.57;;;;;;;22.24;79.15;99978.84;10293521;28;20043;-75
2022/07/14 01:58:39;;;;;;;16.88;5.10;;;;;;;21.41;79.49;99857.25;10292621;28;20043;-75
2022/07/14 02:03:40;;;;;;;43.38;6.15;;;;;;;22.31;79.32;99987.56;10292880;28;20042;-74
2022/07/14 02:08:41;;;;;;;15.13;4.30;;;;;;;21.52;79.26;99858.19;10293227;28;20043;-75
2022/07/14 02:13:42;;;;;;;107.65;11.02;;;;;;;21.53;79.54;99848.19;10292149;28;20396;-75
2022/07/14 02:18:42;;;;;;;44.03;5.72;;;;;;;21.64;79.32;99861.59;10292194;28;20122;-74
2022/07/14 02:23:43;;;;;;;17.23;4.70;;;;;;;22.45;79.53;99973.66;10292545;28;20089;-74
2022/07/14 02:28:44;;;;;;;9.52;3.55;;;;;;;22.55;79.35;99981.88;10292381;28;20038;-75
2022/07/14 02:33:48;;;;;;;9.05;4.03;;;;;;;22.67;79.01;99996.06;10292050;28;20488;-74
2022/07/14 02:38:50;;;;;;;8.98;4.10;;;;;;;22.68;79.00;99981.47;10307140;28;20042;-74
2022/07/14 02:43:50;;;;;;;10.30;4.15;;;;;;;22.56;78.98;99953.75;10291436;28;20047;-75
2022/07/14 02:48:51;;;;;;;9.55;3.97;;;;;;;22.72;79.61;99962.81;10292229;28;20047;-73
2022/07/14 02:53:52;;;;;;;56.85;6.13;;;;;;;22.82;80.09;99972.91;10291230;28;20052;-75
2022/07/14 02:58:54;;;;;;;28.27;4.93;;;;;;;22.77;80.64;99998.88;10291347;28;20074;-75
2022/07/14 03:03:55;;;;;;;26.55;4.97;;;;;;;22.79;80.68;99985.91;10291057;28;20035;-75
2022/07/14 03:08:55;;;;;;;11.05;4.43;;;;;;;22.76;80.49;99978.28;10322745;28;20047;-75
2022/07/14 03:13:56;;;;;;;13.27;4.75;;;;;;;22.77;80.67;99985.34;10291721;28;20047;-75
2022/07/14 03:18:57;;;;;;;30.63;5.50;;;;;;;22.21;81.33;99868.44;10323179;28;20477;-75
2022/07/14 03:23:58;;;;;;;68.53;7.25;;;;;;;22.43;81.04;99879.16;10290711;28;20069;-76
2022/07/14 03:28:59;;;;;;;19.55;5.05;;;;;;;23.12;80.69;99986.72;10294944;28;20047;-76
2022/07/14 03:33:59;;;;;;;10.52;4.60;;;;;;;23.18;79.81;99985.72;10299372;28;20070;-76
2022/07/14 03:39:00;;;;;;;22.10;5.80;;;;;;;23.25;79.46;99980.06;10297827;28;20077;-75
2022/07/14 03:44:01;;;;;;;28.83;6.15;;;;;;;23.29;80.10;99966.78;10297936;28;20047;-75
2022/07/14 03:49:02;;;;;;;13.20;5.50;;;;;;;22.88;79.30;99863.53;10297764;28;20049;-76
2022/07/14 03:54:03;;;;;;;9.00;4.85;;;;;;;23.12;78.61;99862.09;10329777;28;20502;-74
2022/07/14 03:59:04;;;;;;;10.40;4.03;;;;;;;24.95;75.78;99955.97;10297294;28;20121;-75
2022/07/14 04:04:05;;;;;;;10.55;3.95;;;;;;;25.89;71.60;99969.94;10312215;28;20483;-75
2022/07/14 04:09:06;;;;;;;7.88;3.90;;;;;;;25.98;70.79;99977.53;10324103;28;20088;-74
2022/07/14 04:14:07;;;;;;;54.97;5.50;;;;;;;26.79;68.70;99977.03;10337431;28;20070;-75
2022/07/14 04:19:08;;;;;;;7.35;3.63;;;;;;;26.46;68.07;99973.16;10337379;28;20089;-76
2022/07/14 04:24:09;;;;;;;10.80;3.63;;;;;;;26.14;68.77;99996.19;10336246;28;20410;-74
2022/07/14 04:29:10;;;;;;;12.18;3.85;;;;;;;25.91;68.96;99989.53;10334890;28;20533;-75
2022/07/14 04:34:11;;;;;;;6.20;3.90;;;;;;;25.35;68.51;99875.44;10320883;28;20058;-72
2022/07/14 04:39:12;;;;;;;7.28;3.70;;;;;;;26.06;67.99;99991.38;10336131;28;20477;-75
2022/07/14 04:44:13;;;;;;;7.53;3.35;;;;;;;26.14;67.33;99982.59;10336509;28;20470;-73
2022/07/14 04:54:35;;;;;;;7.30;3.50;;;;;;;26.51;65.36;99956.00;10334445;28;20552;-74
2022/07/14 04:59:36;;;;;;;8.02;3.35;;;;;;;26.88;64.25;99982.69;10335437;28;20050;-73
2022/07/14 05:04:37;;;;;;;6.07;3.03;;;;;;;27.36;62.65;99985.56;10335056;28;20057;-74
2022/07/14 05:09:38;;;;;;;12.48;3.30;;;;;;;28.09;60.86;99976.28;10335382;28;20050;-73
2022/07/14 05:14:38;;;;;;;6.78;3.22;;;;;;;28.46;59.45;99982.91;10335105;28;20112;-74
2022/07/14 05:19:39;;;;;;;14.13;3.65;;;;;;;28.77;58.78;99979.69;10334346;28;20043;-74
2022/07/14 05:24:40;;;;;;;8.45;3.22;;;;;;;28.56;57.93;99960.06;10334366;28;20042;-73
2022/07/14 05:29:41;;;;;;;6.63;2.63;;;;;;;28.21;57.36;99864.69;10334197;28;20038;-73
2022/07/14 05:34:43;;;;;;;6.22;2.83;;;;;;;29.05;56.62;99965.03;10333717;28;20093;-73
2022/07/14 05:39:44;;;;;;;6.40;2.95;;;;;;;28.68;55.80;99876.50;10334356;28;20046;-73
2022/07/14 05:44:45;;;;;;;6.78;3.00;;;;;;;28.90;55.47;99885.97;10333497;28;20045;-72
2022/07/14 05:49:46;;;;;;;8.05;2.72;;;;;;;29.37;55.00;99954.31;10333980;28;20042;-72
2022/07/14 05:54:46;;;;;;;4.90;2.70;;;;;;;29.31;54.08;99950.88;10332956;28;20058;-73
2022/07/14 05:59:47;;;;;;;4.63;2.63;;;;;;;29.43;53.95;99948.44;10333561;28;20482;-72
2022/07/14 06:04:48;;;;;;;8.30;2.95;;;;;;;29.42;53.40;99948.75;10333354;28;20046;-73
2022/07/14 06:09:50;;;;;;;5.68;2.88;;;;;;;29.15;53.26;99966.75;10333279;28;20049;-73
2022/07/14 06:14:51;;;;;;;4.35;2.55;;;;;;;28.81;53.29;99926.88;10332916;28;20076;-73
2022/07/14 06:19:51;;;;;;;22.00;3.55;;;;;;;29.12;53.76;99959.16;10332857;28;20081;-74
2022/07/14 06:24:52;;;;;;;7.47;2.75;;;;;;;28.96;52.26;99884.78;10332143;28;20450;-73
2022/07/14 06:29:54;;;;;;;8.25;3.15;;;;;;;29.68;51.39;99943.63;10333110;28;20084;-72
2022/07/14 06:34:55;;;;;;;8.50;2.70;;;;;;;29.92;51.13;99951.63;10331950;28;20066;-75
2022/07/14 06:39:55;;;;;;;6.07;2.90;;;;;;;29.62;50.78;99871.75;10331705;28;20038;-73
2022/07/14 06:44:56;;;;;;;4.18;2.67;;;;;;;30.01;50.57;99964.28;10331407;28;20108;-75
2022/07/14 06:49:59;;;;;;;4.82;2.65;;;;;;;29.69;51.14;99882.28;10331927;28;20046;-73
2022/07/14 06:55:02;;;;;;;5.22;3.00;;;;;;;30.21;50.79;99973.19;10332192;28;20038;-73
2022/07/14 07:00:07;;;;;;;6.28;2.72;;;;;;;29.66;50.49;99859.06;10331225;28;20042;-74
2022/07/14 07:10:29;;;;;;;7.57;3.20;;;;;;;29.89;49.91;99865.41;10340006;28;20129;-72
2022/07/14 07:15:30;;;;;;;6.53;2.93;;;;;;;30.30;49.58;99922.00;10340368;28;20613;-73
2022/07/14 07:20:31;;;;;;;10.65;3.08;;;;;;;30.48;50.00;99926.53;10339544;28;20137;-73
2022/07/14 07:25:32;;;;;;;6.90;3.05;;;;;;;30.54;49.35;99948.31;10339812;28;20050;-73
2022/07/14 07:30:32;;;;;;;9.02;3.92;;;;;;;29.74;50.51;99838.38;10339769;28;20045;-73
2022/07/14 07:35:33;;;;;;;5.88;3.60;;;;;;;30.06;51.42;99943.34;10339220;28;20112;-73
2022/07/14 07:40:34;;;;;;;7.72;3.60;;;;;;;30.18;51.25;99943.63;10338337;28;20514;-74
2022/07/14 07:45:35;;;;;;;6.90;3.47;;;;;;;29.97;50.90;99944.06;10338976;28;20125;-72
2022/07/14 07:50:36;;;;;;;5.85;3.28;;;;;;;29.67;51.17;99942.81;10338478;28;20074;-72
2022/07/14 07:55:38;;;;;;;8.05;3.38;;;;;;;29.55;50.94;99956.97;10337732;28;20042;-74
2022/07/14 08:00:39;;;;;;;12.17;3.23;;;;;;;29.71;50.10;99945.75;10338300;28;20042;-73
2022/07/14 08:05:43;;;;;;;7.30;3.17;;;;;;;29.68;49.65;99938.97;10338110;28;20049;-72
2022/07/14 08:10:44;;;;;;;8.18;3.28;;;;;;;29.61;50.32;99948.66;10337604;28;20166;-72
2022/07/14 08:15:45;;;;;;;9.40;3.40;;;;;;;29.22;52.05;99909.72;10336851;28;20046;-72
2022/07/14 08:20:45;;;;;;;7.07;2.88;;;;;;;29.29;53.35;99950.38;10336912;28;20046;-75
2022/07/14 08:25:46;;;;;;;11.82;2.65;;;;;;;28.46;54.40;99891.94;10336766;28;20057;-72
2022/07/14 08:30:47;;;;;;;6.30;2.15;;;;;;;28.67;54.65;99959.59;10337154;28;20034;-72
2022/07/14 08:35:48;;;;;;;4.68;2.05;;;;;;;28.61;54.97;99949.88;10336854;28;20413;-73
2022/07/14 08:40:49;;;;;;;4.10;2.10;;;;;;;28.44;54.94;99964.06;10336062;28;20076;-72
2022/07/14 08:45:52;;;;;;;4.07;2.00;;;;;;;27.91;56.11;99968.84;10335746;28;20044;-72
2022/07/14 08:50:53;;;;;;;3.92;1.73;;;;;;;27.49;57.35;99965.78;10336771;28;20042;-72
2022/07/14 08:55:54;;;;;;;6.95;2.00;;;;;;;26.98;58.49;99949.91;10336654;28;20125;-76
2022/07/14 09:00:55;;;;;;;8.45;2.10;;;;;;;26.99;58.76;99978.78;10336504;28;20057;-72
2022/07/14 09:05:55;;;;;;;5.53;2.10;;;;;;;26.75;59.88;99975.19;10335820;28;20478;-72
2022/07/14 09:10:56;;;;;;;12.88;3.03;;;;;;;26.58;60.80;99995.44;10336144;28;20045;-73
2022/07/14 09:16:32;;;;;;;5.10;3.22;;;;;;;26.44;62.78;100012.66;10334722;28;20053;-73
2022/07/14 09:21:37;;;;;;;7.60;3.22;;;;;;;25.69;63.09;99912.84;10348134;28;20407;-72
2022/07/14 09:26:47;;;;;;;8.52;3.03;;;;;;;25.83;63.38;99932.13;10334137;28;20068;-73
2022/07/14 09:31:48;;;;;;;8.13;2.85;;;;;;;26.37;63.24;100011.06;10334885;28;20046;-72
2022/07/14 09:36:49;;;;;;;7.68;2.45;;;;;;;25.89;63.35;99903.81;10333849;28;20511;-72
2022/07/14 09:41:56;;;;;;;4.03;1.70;;;;;;;26.91;62.99;100033.09;10333546;28;20042;-73
2022/07/14 09:46:58;;;;;;;3.97;2.00;;;;;;;26.87;62.50;99989.25;10333972;28;20042;-83
2022/07/14 09:51:58;;;;;;;3.08;1.90;;;;;;;27.24;61.89;100026.03;10333375;28;20391;-71
2022/07/14 09:56:59;;;;;;;4.05;2.22;;;;;;;27.18;61.86;100038.91;10333160;28;20042;-72
2022/07/14 10:02:00;;;;;;;9.07;2.50;;;;;;;26.79;61.45;100000.75;10332780;28;20061;-77
2022/07/14 10:07:01;;;;;;;6.85;2.50;;;;;;;26.86;61.03;100031.22;10333430;28;20042;-74
2022/07/14 10:12:03;;;;;;;3.65;2.72;;;;;;;26.19;60.49;99902.81;10332481;28;20414;-73
2022/07/14 10:17:05;;;;;;;6.20;3.20;;;;;;;27.13;59.90;100019.81;10333453;28;20042;-73
2022/07/14 10:22:06;;;;;;;6.07;4.05;;;;;;;27.19;60.93;100051.44;10332824;28;20054;-73
2022/07/14 10:27:08;;;;;;;4.50;3.67;;;;;;;26.36;60.50;99933.19;10332618;28;20035;-71
2022/07/14 10:32:24;;;;;;;6.05;3.47;;;;;;;27.28;59.77;100057.91;10332490;28;20043;-73
2022/07/14 10:37:53;;;;;;;9.73;3.42;;;;;;;27.24;57.97;100045.94;10332159;28;20077;-73
2022/07/14 10:43:10;;;;;;;6.70;2.90;;;;;;;27.16;56.31;100046.53;10332194;28;20065;-77
2022/07/14 10:48:36;;;;;;;6.90;3.20;;;;;;;27.02;57.82;100059.19;10331491;28;20035;-73
2022/07/14 10:54:06;;;;;;;6.43;3.60;;;;;;;26.78;59.01;100068.06;10331876;28;20050;-76
2022/07/14 10:59:25;;;;;;;5.60;3.35;;;;;;;26.52;60.07;100063.88;10331761;28;20073;-74
2022/07/14 11:04:59;;;;;;;6.93;3.40;;;;;;;26.39;58.34;100076.97;10332507;28;20088;-72
2022/07/14 11:10:03;;;;;;;7.63;3.70;;;;;;;25.43;56.87;99925.75;10331837;28;20155;-72
2022/07/14 11:15:40;;;;;;;12.75;3.72;;;;;;;26.55;55.28;100074.19;10331070;28;20418;-72
2022/07/14 11:20:51;;;;;;;6.68;3.38;;;;;;;26.53;54.65;100090.81;10330912;28;20038;-71
2022/07/14 11:25:54;;;;;;;8.45;3.28;;;;;;;26.38;55.01;100091.69;10330858;28;20035;-73
2022/07/14 11:31:23;;;;;;;6.13;3.03;;;;;;;26.39;54.18;100087.88;10330697;28;20042;-72
2022/07/14 11:36:25;;;;;;;7.70;3.17;;;;;;;26.43;51.85;100082.66;10318526;28;20069;-74
2022/07/14 11:41:43;;;;;;;8.48;2.58;;;;;;;26.75;49.15;100089.63;10328411;28;20053;-70
2022/07/14 11:46:59;;;;;;;6.78;2.70;;;;;;;27.08;49.08;100077.94;10329307;28;20050;-70
2022/07/14 11:52:02;;;;;;;5.35;2.45;;;;;;;26.47;48.45;99954.91;10338818;28;20502;-73
2022/07/14 11:57:05;;;;;;;9.03;2.37;;;;;;;25.65;46.97;99813.84;10318485;28;20050;-71
2022/07/14 12:02:07;;;;;;;8.63;2.42;;;;;;;27.45;45.82;100070.31;10338079;28;20109;-75
2022/07/14 12:07:08;;;;;;;10.35;2.50;;;;;;;27.44;45.05;100074.16;10337444;28;20557;-71
2022/07/14 12:12:09;;;;;;;4.85;1.95;;;;;;;26.94;43.92;99972.56;10337146;28;20125;-70
2022/07/14 12:17:09;;;;;;;6.00;2.20;;;;;;;26.93;44.46;99960.03;10334688;28;20048;-69
2022/07/14 12:22:10;;;;;;;10.25;2.10;;;;;;;27.37;44.63;100052.63;10333044;28;20058;-67
2022/07/14 12:27:11;;;;;;;5.00;2.15;;;;;;;27.39;44.93;100044.97;10334623;28;20038;-67
2022/07/14 12:32:14;;;;;;;13.77;2.38;;;;;;;27.44;45.87;100064.03;10336319;28;20510;-67
2022/07/14 12:37:15;;;;;;;13.38;2.60;;;;;;;27.48;44.75;100062.34;10335359;28;20053;-69
2022/07/14 12:42:17;;;;;;;15.10;2.38;;;;;;;27.47;44.59;100076.28;10334730;28;20042;-67
2022/07/14 12:47:18;;;;;;;4.22;1.98;;;;;;;27.20;45.31;100071.34;10334635;28;20133;-68
2022/07/14 12:52:19;;;;;;;4.95;1.88;;;;;;;26.97;45.45;100070.94;10334684;28;20046;-67
2022/07/14 12:57:23;;;;;;;12.68;2.95;;;;;;;26.84;46.60;100083.28;10332717;28;20042;-67
2022/07/14 13:02:25;;;;;;;7.28;1.88;;;;;;;26.64;46.94;100078.78;10330431;28;20057;-67
2022/07/14 13:07:28;;;;;;;8.55;2.13;;;;;;;26.46;46.17;100073.13;10335327;28;20046;-67
2022/07/14 13:12:29;;;;;;;4.40;1.73;;;;;;;26.25;46.49;100075.94;10335494;28;20048;-68
2022/07/14 13:17:55;;;;;;;15.07;2.78;;;;;;;26.17;47.96;100074.63;10334512;28;20085;-67
2022/07/14 13:22:56;;;;;;;12.02;2.88;;;;;;;25.47;48.76;99983.91;10334160;28;20057;-68
2022/07/14 13:27:57;;;;;;;10.10;5.28;;;;;;;26.10;47.64;100090.41;10334733;28;20097;-68
2022/07/14 13:32:58;;;;;;;10.10;3.28;;;;;;;25.72;47.57;100040.97;10334311;28;20092;-67
2022/07/14 13:38:00;;;;;;;7.43;2.20;;;;;;;25.31;46.70;99977.69;10365535;28;20048;-67
2022/07/14 13:43:00;;;;;;;9.57;2.25;;;;;;;25.87;46.17;100080.13;10331802;28;20042;-69
2022/07/14 13:48:01;;;;;;;6.45;2.10;;;;;;;25.92;46.12;100085.56;10332265;28;20054;-67
2022/07/14 13:53:02;;;;;;;5.05;1.92;;;;;;;24.89;45.23;99943.47;10333551;28;20046;-68
2022/07/14 13:58:03;;;;;;;3.75;2.10;;;;;;;25.31;45.54;100013.03;10365534;28;20042;-67
2022/07/14 14:03:26;;;;;;;6.55;1.80;;;;;;;25.88;45.72;100095.41;10332923;28;20054;-68
2022/07/14 14:08:33;;;;;;;7.85;2.10;;;;;;;25.73;45.59;100071.72;10311481;28;20066;-68
2022/07/14 14:13:35;;;;;;;11.65;2.10;;;;;;;25.91;45.88;100079.31;10332123;28;20042;-67
2022/07/14 14:18:35;;;;;;;5.15;2.00;;;;;;;25.77;45.61;100037.41;10331226;28;20042;-67
2022/07/14 14:23:37;;;;;;;3.95;1.85;;;;;;;25.92;45.63;100077.41;10333015;28;20510;-67
2022/07/14 14:28:39;;;;;;;8.88;2.30;;;;;;;25.06;46.57;99943.16;10332478;28;20042;-67
2022/07/14 14:33:40;;;;;;;3.05;1.65;;;;;;;25.74;46.09;100076.06;10331656;28;20054;-66
2022/07/14 14:38:41;;;;;;;3.88;1.80;;;;;;;25.55;46.08;100062.22;10332230;28;20042;-66
2022/07/14 14:43:41;;;;;;;4.60;1.90;;;;;;;25.55;46.84;100077.72;10332081;28;20096;-67
2022/07/14 14:48:42;;;;;;;5.80;1.90;;;;;;;25.50;47.22;100086.72;10332389;28;20541;-67
2022/07/14 14:53:43;;;;;;;2.88;1.60;;;;;;;25.57;46.72;100083.69;10331299;28;20042;-67
2022/07/14 14:58:44;;;;;;;9.65;2.10;;;;;;;25.37;46.68;100017.38;10331307;28;20449;-67
2022/07/14 15:03:47;;;;;;;4.00;1.88;;;;;;;26.16;45.35;100083.88;10322711;28;20100;-67
2022/07/14 15:08:48;;;;;;;13.43;2.22;;;;;;;25.60;45.29;100004.28;10313428;28;20130;-67
2022/07/14 15:13:48;;;;;;;7.30;1.95;;;;;;;25.40;45.18;99997.81;10296294;28;20136;-67
2022/07/14 15:18:49;;;;;;;5.28;1.83;;;;;;;26.00;45.60;100108.72;10322731;28;20402;-67
2022/07/14 15:23:50;;;;;;;10.23;2.20;;;;;;;25.92;46.25;100105.44;10333670;28;20046;-67
2022/07/14 15:28:51;;;;;;;9.07;2.38;;;;;;;25.62;46.41;100075.53;10340084;28;20042;-67
2022/07/14 15:33:53;;;;;;;23.50;2.53;;;;;;;25.63;47.14;100107.09;10338729;28;20058;-67
2022/07/14 15:44:14;;;;;;;11.60;2.30;;;;;;;25.23;48.16;100087.78;10324148;28;20191;-68
2022/07/14 15:49:15;;;;;;;4.43;1.98;;;;;;;25.17;48.41;100086.16;10338593;28;20125;-68
2022/07/14 15:54:16;;;;;;;11.00;2.08;;;;;;;23.94;48.93;99896.91;10332948;28;20054;-68
2022/07/14 15:59:17;;;;;;;10.52;2.90;;;;;;;24.96;48.65;100074.44;10335204;28;20038;-68
2022/07/14 16:04:18;;;;;;;10.60;2.47;;;;;;;24.36;48.11;99980.88;10336171;28;20069;-68
2022/07/14 16:09:20;;;;;;;12.38;2.42;;;;;;;25.00;48.94;100091.81;10369399;28;20049;-69
2022/07/14 16:14:21;;;;;;;8.50;2.28;;;;;;;25.05;48.24;100107.31;10338095;28;20049;-66
2022/07/14 16:19:22;;;;;;;7.78;2.28;;;;;;;24.25;47.90;99985.44;10337329;28;20495;-68
2022/07/14 16:24:23;;;;;;;8.13;2.42;;;;;;;24.97;48.32;100105.94;10336885;28;20101;-68
2022/07/14 16:29:23;;;;;;;12.85;2.20;;;;;;;24.85;48.37;100099.94;10327968;28;20039;-68
2022/07/14 16:34:24;;;;;;;12.15;2.40;;;;;;;24.92;47.97;100107.81;10335115;28;20061;-68
2022/07/14 16:39:25;;;;;;;8.90;2.35;;;;;;;24.65;47.64;100084.44;10336715;28;20066;-69
2022/07/14 16:44:26;;;;;;;14.38;2.83;;;;;;;24.74;47.81;100120.00;10337195;28;20684;-68
2022/07/14 16:49:27;;;;;;;14.05;3.03;;;;;;;24.75;48.42;100110.78;10330093;28;20058;-68
2022/07/14 16:54:28;;;;;;;15.15;3.20;;;;;;;24.65;47.62;100110.75;10335345;28;20042;-68
2022/07/14 16:59:29;;;;;;;18.58;3.20;;;;;;;23.87;47.31;100011.91;10332737;28;20054;-67
2022/07/14 17:04:30;;;;;;;25.20;3.45;;;;;;;24.57;47.93;100134.63;10336062;28;20034;-68
2022/07/14 17:09:31;;;;;;;15.73;3.05;;;;;;;24.26;48.91;100122.81;10336012;28;20407;-68
2022/07/14 17:14:32;;;;;;;14.57;2.95;;;;;;;24.11;50.59;100137.09;10335442;28;20116;-68
2022/07/14 17:19:32;;;;;;;24.95;3.55;;;;;;;24.07;51.18;100157.69;10331811;28;20514;-67
2022/07/14 17:24:33;;;;;;;15.40;2.78;;;;;;;23.23;51.14;100067.03;10332412;28;20104;-69
2022/07/14 17:29:34;;;;;;;10.18;2.65;;;;;;;22.96;50.88;100055.41;10332541;28;20046;-68
2022/07/14 17:34:35;;;;;;;26.50;3.58;;;;;;;23.33;52.30;100163.03;10330811;28;20080;-67
2022/07/14 17:39:36;;;;;;;35.22;3.80;;;;;;;23.35;53.68;100188.00;10327372;28;20429;-68
2022/07/14 17:44:37;;;;;;;23.48;3.80;;;;;;;22.63;55.10;100129.50;10365115;28;20141;-68
2022/07/14 17:49:38;;;;;;;13.32;3.30;;;;;;;22.53;56.20;100166.22;10333578;28;20129;-68
2022/07/14 17:54:39;;;;;;;18.08;3.33;;;;;;;22.32;56.22;100167.81;10333914;28;20046;-67
2022/07/14 17:59:41;;;;;;;13.60;2.92;;;;;;;21.79;56.53;100112.38;10333558;28;20038;-68
2022/07/14 18:04:42;;;;;;;44.17;5.00;;;;;;;22.30;56.69;100215.97;10333039;28;20090;-67
2022/07/14 18:09:42;;;;;;;28.88;3.85;;;;;;;21.39;56.35;100089.06;10331265;28;20066;-67
2022/07/14 18:14:44;;;;;;;16.33;3.92;;;;;;;21.99;56.95;100211.94;10331011;28;20038;-67
2022/07/14 18:19:44;;;;;;;24.40;4.47;;;;;;;21.92;57.35;100218.59;10331148;28;20042;-67
2022/07/14 18:24:45;;;;;;;30.23;5.30;;;;;;;21.96;57.47;100212.44;10330246;28;20446;-70
2022/07/14 18:29:46;;;;;;;32.60;5.78;;;;;;;21.89;58.16;100203.66;10330874;28;20121;-68
2022/07/14 18:34:47;;;;;;;155.20;11.25;;;;;;;21.87;58.90;100228.25;10327921;28;20065;-67
2022/07/14 18:39:52;;;;;;;28.77;4.47;;;;;;;21.69;59.42;100220.38;10330309;28;20046;-67
2022/07/14 18:50:13;;;;;;;25.40;5.00;;;;;;;21.36;60.79;100216.56;10328983;28;20074;-67
2022/07/14 18:55:14;;;;;;;24.75;4.50;;;;;;;20.40;61.35;100094.78;10331336;28;20528;-67
2022/07/14 19:00:16;;;;;;;23.92;4.57;;;;;;;20.86;61.39;100178.56;10328395;28;20137;-69
2022/07/14 19:05:17;;;;;;;50.17;4.80;;;;;;;21.04;61.32;100220.78;10329065;28;20046;-69
2022/07/14 19:10:18;;;;;;;10.02;3.78;;;;;;;20.29;61.51;100120.69;10328047;28;20049;-69
2022/07/14 19:15:19;;;;;;;14.93;3.72;;;;;;;20.87;60.92;100229.59;10328871;28;20056;-70
2022/07/14 19:20:20;;;;;;;20.20;4.93;;;;;;;20.12;62.38;100117.09;10328061;28;20062;-69
2022/07/14 19:25:24;;;;;;;29.67;4.80;;;;;;;20.73;62.33;100222.81;10332100;28;20130;-69
2022/07/14 19:30:26;;;;;;;27.00;4.80;;;;;;;20.54;62.49;100218.66;10362857;28;20133;-69
2022/07/14 19:35:28;;;;;;;34.30;5.85;;;;;;;20.54;62.99;100240.22;10331222;28;20516;-69
2022/07/14 19:40:29;;;;;;;17.25;3.92;;;;;;;20.52;62.89;100227.81;10330364;28;20054;-69
2022/07/14 19:45:31;;;;;;;25.35;4.50;;;;;;;20.43;62.80;100229.19;10330760;28;20041;-69
2022/07/14 19:50:32;;;;;;;13.27;4.18;;;;;;;20.35;63.92;100239.53;10331557;28;20039;-68
2022/07/14 19:55:33;;;;;;;34.60;4.88;;;;;;;19.92;64.05;100194.81;10330780;28;20049;-69
2022/07/14 20:00:34;;;;;;;20.42;4.78;;;;;;;20.19;64.37;100247.25;10330744;28;20133;-69
2022/07/14 20:05:35;;;;;;;18.88;4.05;;;;;;;20.17;64.50;100243.16;10330010;28;20125;-69
2022/07/14 20:10:35;;;;;;;10.90;3.97;;;;;;;19.37;64.90;100113.16;10334323;28;20064;-69
2022/07/14 20:15:36;;;;;;;16.17;4.57;;;;;;;20.12;65.08;100237.63;10337601;28;20070;-69
2022/07/14 20:20:37;;;;;;;25.80;5.20;;;;;;;19.95;65.54;100242.88;10337579;28;20047;-69
2022/07/14 20:25:38;;;;;;;18.42;5.13;;;;;;;19.68;65.62;100215.50;10337367;28;20042;-69
2022/07/14 20:35:59;;;;;;;25.52;6.20;;;;;;;19.50;66.59;100230.66;10337597;28;20058;-69
2022/07/14 20:40:59;;;;;;;18.80;4.80;;;;;;;19.65;65.67;100237.53;10334402;28;20042;-69
2022/07/14 20:47:12;;;;;;;14.25;4.53;;;;;;;19.70;65.63;100251.97;10331855;28;20038;-69
2022/07/14 20:51:25;;;;;;;16.45;6.07;;;;;;;19.72;66.31;100266.03;10335839;28;20054;-69
2022/07/14 20:56:26;;;;;;;23.20;5.10;;;;;;;19.70;66.82;100256.53;10336132;28;20046;-68
2022/07/14 21:01:27;;;;;;;13.90;4.50;;;;;;;19.64;67.31;100265.50;10335776;28;20046;-69
2022/07/14 21:06:27;;;;;;;13.55;4.40;;;;;;;19.67;67.83;100262.38;10336636;28;20044;-69
2022/07/14 21:11:28;;;;;;;17.38;5.00;;;;;;;18.77;68.71;100133.91;10335574;28;20383;-69
2022/07/14 21:16:30;;;;;;;12.55;4.20;;;;;;;19.43;68.96;100278.44;10335277;28;20490;-69
2022/07/14 21:21:34;;;;;;;10.40;4.15;;;;;;;19.29;69.62;100282.34;10334690;28;20038;-69
2022/07/14 21:26:37;;;;;;;31.20;4.55;;;;;;;18.56;70.16;100175.53;10335304;28;20092;-68
2022/07/14 21:31:37;;;;;;;20.55;4.22;;;;;;;19.15;70.82;100277.13;10334399;28;20089;-69
2022/07/14 21:36:41;;;;;;;21.83;4.88;;;;;;;19.07;71.19;100282.81;10334719;28;20093;-69
2022/07/14 21:41:41;;;;;;;19.30;4.50;;;;;;;18.06;71.31;100138.00;10333807;28;20054;-69
2022/07/14 21:46:42;;;;;;;11.27;4.32;;;;;;;17.82;71.88;100107.44;10365687;28;20042;-69
2022/07/14 21:51:43;;;;;;;14.55;4.47;;;;;;;17.82;72.26;100137.81;10334237;28;20034;-69
2022/07/14 21:56:44;;;;;;;8.60;4.13;;;;;;;18.30;72.86;100225.84;10333166;28;20050;-69
2022/07/14 22:01:45;;;;;;;29.48;4.95;;;;;;;18.76;73.25;100301.81;10333039;28;20042;-69
2022/07/14 22:06:46;;;;;;;12.43;4.75;;;;;;;18.11;73.45;100202.69;10332903;28;20044;-69
2022/07/14 22:11:46;;;;;;;13.02;4.30;;;;;;;18.75;72.84;100311.72;10333838;28;20042;-69
2022/07/14 22:16:47;;;;;;;27.88;4.53;;;;;;;17.86;73.35;100198.16;10332899;28;20065;-69
2022/07/14 22:21:49;;;;;;;14.80;3.95;;;;;;;18.47;73.94;100317.56;10333327;28;20379;-68
2022/07/14 22:32:10;;;;;;;14.25;4.60;;;;;;;18.40;74.51;100327.56;10332919;28;20045;-73
2022/07/14 22:37:11;;;;;;;7.88;3.70;;;;;;;18.05;74.83;100292.28;10327824;28;20068;-73
2022/07/14 22:42:12;;;;;;;13.98;4.25;;;;;;;16.86;74.99;100112.84;10332348;28;20050;-73
2022/07/14 22:47:14;;;;;;;33.38;5.40;;;;;;;18.20;75.41;100338.47;10332199;28;20410;-72
2022/07/14 22:52:15;;;;;;;28.60;5.38;;;;;;;18.21;75.67;100340.94;10332028;28;20084;-73
2022/07/14 22:57:16;;;;;;;12.38;4.80;;;;;;;18.20;75.17;100344.66;10332107;28;20074;-73
2022/07/14 23:02:17;;;;;;;13.40;4.78;;;;;;;18.13;75.40;100349.28;10332023;28;20148;-73
2022/07/14 23:07:18;;;;;;;10.30;4.50;;;;;;;17.83;75.13;100306.06;10330568;28;20134;-73
2022/07/14 23:12:30;;;;;;;20.38;4.88;;;;;;;17.99;75.75;100366.53;10331976;28;20469;-73
2022/07/14 23:17:31;;;;;;;15.63;4.70;;;;;;;17.94;75.94;100377.09;10332151;28;20046;-73
2022/07/14 23:22:32;;;;;;;23.25;5.78;;;;;;;17.63;76.06;100322.25;10330860;28;20069;-73
2022/07/14 23:27:33;;;;;;;22.95;5.05;;;;;;;17.82;76.41;100349.25;10330998;28;20064;-72
2022/07/14 23:32:33;;;;;;;16.95;5.38;;;;;;;17.74;76.21;100335.03;10330562;28;20092;-73
2022/07/14 23:37:35;;;;;;;15.90;5.55;;;;;;;17.86;76.63;100390.78;10331537;28;20062;-73
2022/07/14 23:42:37;;;;;;;13.63;5.15;;;;;;;17.07;76.67;100280.78;10331234;28;20093;-72